Terminal Aerodrome Forecast
Issued by NWS

Home | Current Version | Previous Version | Text Only | Print | Product List | Glossary On
Versions: 1 2 3 4 5 6 7 8 9 10 11 12 13 14 15 16 17 18 19 20 21 22 23 24 25 26 27 28 29 30
000
FTUS46 KOTX 031725
TAFSFF
TAF
KSFF 031725Z 0318/0418 VRB02KT P6SM FEW100
     FM032000 28007KT P6SM FEW100
     FM040300 VRB03KT P6SM SKC
     FM041400 15004KT P6SM FEW100 SCT200=

USA.gov is the U.S. government's official web portal to all federal, state and local government web resources and services.